Time;durP1;ratioP1;P1;durP2;ratioP2;P2;SDS_P1;SDS_P2;PMS_P1;PMS_P2;Temp;Humidity;BMP_temperature;BMP_pressure;BME280_temperature;BME280_humidity;BME280_pressure;Samples;Min_cycle;Max_cycle;Signal;HPM_P1;HPM_P2
2023/12/09 00:01:53;;;;;;;7.32;1.58;;;;;;;;;;5106180;29;20051;-59
2023/12/09 00:04:24;;;;;;;9.52;1.98;;;;;;;;;;5122070;29;20178;-58
2023/12/09 00:06:55;;;;;;;8.25;1.92;;;;;;;;;;5121733;28;20035;-59
2023/12/09 00:09:26;;;;;;;7.70;1.70;;;;;;;;;;5107560;29;20664;-58
2023/12/09 00:11:58;;;;;;;11.35;2.05;;;;;;;;;;5105649;29;20410;-58
2023/12/09 00:14:29;;;;;;;6.07;1.80;;;;;;;;;;5130221;28;20463;-58
2023/12/09 00:17:00;;;;;;;8.00;2.03;;;;;;;;;;5109704;29;20129;-58
2023/12/09 00:19:31;;;;;;;8.23;2.08;;;;;;;;;;5141024;28;20045;-58
2023/12/09 00:22:02;;;;;;;12.35;2.72;;;;;;;;;;5105986;29;20272;-58
2023/12/09 00:24:33;;;;;;;7.87;2.00;;;;;;;;;;5121678;29;20483;-58
2023/12/09 00:27:05;;;;;;;9.52;2.13;;;;;;;;;;5138000;28;20046;-57
2023/12/09 00:29:36;;;;;;;11.07;2.22;;;;;;;;;;5105851;29;20039;-57
2023/12/09 00:32:07;;;;;;;8.30;2.28;;;;;;;;;;5121648;28;20082;-57
2023/12/09 00:34:38;;;;;;;6.72;1.92;;;;;;;;;;5105934;29;20075;-57
2023/12/09 00:37:09;;;;;;;10.18;2.33;;;;;;;;;;5121885;29;20499;-57
2023/12/09 00:39:41;;;;;;;12.57;2.60;;;;;;;;;;5121783;28;20451;-57
2023/12/09 00:42:12;;;;;;;10.13;2.67;;;;;;;;;;5105337;29;20039;-57
2023/12/09 00:44:43;;;;;;;10.23;2.35;;;;;;;;;;5121571;29;20092;-57
2023/12/09 00:47:14;;;;;;;9.35;2.63;;;;;;;;;;5122015;28;20490;-57
2023/12/09 00:49:45;;;;;;;8.65;2.17;;;;;;;;;;5121678;28;20048;-58
2023/12/09 00:52:16;;;;;;;8.25;2.72;;;;;;;;;;5105893;29;20053;-58
2023/12/09 00:54:47;;;;;;;7.50;2.08;;;;;;;;;;5121604;29;20122;-58
2023/12/09 00:57:20;;;;;;;11.00;2.55;;;;;;;;;;5121771;28;20074;-58
2023/12/09 00:59:52;;;;;;;6.03;2.05;;;;;;;;;;5125545;28;20470;-58
2023/12/09 01:02:23;;;;;;;9.68;2.70;;;;;;;;;;5121763;29;20126;-59
2023/12/09 01:04:54;;;;;;;8.65;2.30;;;;;;;;;;5106047;29;20078;-60
2023/12/09 01:07:25;;;;;;;9.35;2.90;;;;;;;;;;5121703;28;20467;-59
2023/12/09 01:09:56;;;;;;;15.43;3.42;;;;;;;;;;5122957;28;20106;-59
2023/12/09 01:12:27;;;;;;;12.05;2.38;;;;;;;;;;5122990;28;20046;-59
2023/12/09 01:14:58;;;;;;;13.45;2.60;;;;;;;;;;5111591;29;20529;-60
2023/12/09 01:17:29;;;;;;;9.60;2.65;;;;;;;;;;5134404;28;20078;-60
2023/12/09 01:20:00;;;;;;;9.55;2.50;;;;;;;;;;5121708;29;20410;-59
2023/12/09 01:22:32;;;;;;;10.20;3.03;;;;;;;;;;5104487;29;20054;-59
2023/12/09 01:25:03;;;;;;;8.63;2.72;;;;;;;;;;5126587;28;20089;-60
2023/12/09 01:27:34;;;;;;;12.52;2.83;;;;;;;;;;5105421;29;20039;-60
2023/12/09 01:30:05;;;;;;;10.60;2.70;;;;;;;;;;5135377;28;20577;-60
2023/12/09 01:32:36;;;;;;;8.48;2.22;;;;;;;;;;5121584;28;20047;-59
2023/12/09 01:35:08;;;;;;;13.13;2.88;;;;;;;;;;5132261;28;20050;-59
2023/12/09 01:37:39;;;;;;;9.30;2.22;;;;;;;;;;5122844;28;20043;-59
2023/12/09 01:40:14;;;;;;;7.55;2.38;;;;;;;;;;5121895;28;20447;-58
2023/12/09 01:42:45;;;;;;;7.20;2.85;;;;;;;;;;5124378;28;20039;-58
2023/12/09 01:45:16;;;;;;;7.82;2.15;;;;;;;;;;5127728;28;20501;-58
2023/12/09 01:47:48;;;;;;;9.50;2.30;;;;;;;;;;5105382;29;20043;-58
2023/12/09 01:50:19;;;;;;;8.88;2.33;;;;;;;;;;5106020;29;20360;-58
2023/12/09 01:52:50;;;;;;;14.85;3.03;;;;;;;;;;5121644;29;20034;-58
2023/12/09 01:55:22;;;;;;;10.07;2.70;;;;;;;;;;5121074;28;20131;-58
2023/12/09 01:57:53;;;;;;;9.70;2.40;;;;;;;;;;5121186;28;20050;-58
2023/12/09 02:00:24;;;;;;;9.13;2.63;;;;;;;;;;5121477;29;20043;-59
2023/12/09 02:02:55;;;;;;;8.03;2.70;;;;;;;;;;5121320;29;20045;-58
2023/12/09 02:05:27;;;;;;;10.20;3.08;;;;;;;;;;5131284;28;20046;-59
2023/12/09 02:07:58;;;;;;;9.05;3.30;;;;;;;;;;5125912;28;20554;-59
2023/12/09 02:10:29;;;;;;;7.78;2.88;;;;;;;;;;5125354;28;20506;-58
2023/12/09 02:13:11;;;;;;;8.05;2.50;;;;;;;;;;5108796;29;20062;-58
2023/12/09 02:15:50;;;;;;;7.40;2.22;;;;;;;;;;5109979;28;20079;-58
2023/12/09 02:18:23;;;;;;;8.38;2.92;;;;;;;;;;5124951;29;20043;-58
2023/12/09 02:20:54;;;;;;;7.85;2.38;;;;;;;;;;5108102;29;20066;-59
2023/12/09 02:23:25;;;;;;;11.03;2.50;;;;;;;;;;5108702;29;20513;-60
2023/12/09 02:25:59;;;;;;;8.00;2.20;;;;;;;;;;5112751;28;20118;-60
2023/12/09 02:28:31;;;;;;;9.20;2.28;;;;;;;;;;5108544;29;20288;-60
2023/12/09 02:31:05;;;;;;;6.20;2.38;;;;;;;;;;5124695;28;20047;-59
2023/12/09 02:33:37;;;;;;;8.77;2.83;;;;;;;;;;5124306;29;20109;-59
2023/12/09 02:36:09;;;;;;;10.73;2.83;;;;;;;;;;5124673;28;20035;-59
2023/12/09 02:38:40;;;;;;;12.55;2.83;;;;;;;;;;5108811;29;20051;-59
2023/12/09 02:41:12;;;;;;;10.73;3.03;;;;;;;;;;5116097;28;20096;-58
2023/12/09 02:43:46;;;;;;;7.77;2.60;;;;;;;;;;5108331;29;20078;-59
2023/12/09 02:46:17;;;;;;;9.32;3.13;;;;;;;;;;5124349;28;20039;-59
2023/12/09 02:48:48;;;;;;;8.07;2.45;;;;;;;;;;5124393;28;20046;-59
2023/12/09 02:51:19;;;;;;;7.85;2.28;;;;;;;;;;5108657;29;20435;-59
2023/12/09 02:53:50;;;;;;;9.85;2.92;;;;;;;;;;5123879;28;20047;-60
2023/12/09 02:56:22;;;;;;;7.95;2.10;;;;;;;;;;5123857;29;20045;-60
2023/12/09 02:58:53;;;;;;;8.40;1.88;;;;;;;;;;5123944;28;20090;-60
2023/12/09 03:01:24;;;;;;;9.50;1.92;;;;;;;;;;5107420;28;20047;-58
2023/12/09 03:03:55;;;;;;;6.88;1.70;;;;;;;;;;5107900;29;20130;-59
2023/12/09 03:06:26;;;;;;;4.57;1.50;;;;;;;;;;5140018;28;20489;-59
2023/12/09 03:08:57;;;;;;;8.02;1.80;;;;;;;;;;5136185;28;20462;-59
2023/12/09 03:11:28;;;;;;;7.47;1.50;;;;;;;;;;5136794;28;20040;-58
2023/12/09 03:14:00;;;;;;;9.88;2.55;;;;;;;;;;5131904;28;20090;-58
2023/12/09 03:16:31;;;;;;;7.70;1.55;;;;;;;;;;5117290;29;20460;-58
2023/12/09 03:19:02;;;;;;;8.48;1.85;;;;;;;;;;5133824;28;20086;-58
2023/12/09 03:21:33;;;;;;;9.63;2.03;;;;;;;;;;5107872;29;20453;-58
2023/12/09 03:24:04;;;;;;;10.77;1.70;;;;;;;;;;5107214;29;20043;-59
2023/12/09 03:26:36;;;;;;;6.22;1.75;;;;;;;;;;5116068;28;20050;-58
2023/12/09 03:29:07;;;;;;;13.33;2.23;;;;;;;;;;5126753;28;20035;-59
2023/12/09 03:31:41;;;;;;;6.60;1.98;;;;;;;;;;5123513;29;20090;-58
2023/12/09 03:34:15;;;;;;;8.98;2.78;;;;;;;;;;5123542;28;20109;-60
2023/12/09 03:36:46;;;;;;;11.95;2.30;;;;;;;;;;5107525;28;20356;-59
2023/12/09 03:39:18;;;;;;;9.73;2.00;;;;;;;;;;5123482;28;20050;-59
2023/12/09 03:41:49;;;;;;;9.45;1.85;;;;;;;;;;5123425;28;20490;-59
2023/12/09 03:44:20;;;;;;;10.77;2.47;;;;;;;;;;5123578;29;20047;-59
2023/12/09 03:46:51;;;;;;;10.93;2.50;;;;;;;;;;5122949;28;20039;-59
2023/12/09 03:49:22;;;;;;;8.00;2.40;;;;;;;;;;5122779;28;20362;-58
2023/12/09 03:51:53;;;;;;;7.13;2.28;;;;;;;;;;5122489;28;20043;-59
2023/12/09 03:54:24;;;;;;;9.90;2.25;;;;;;;;;;5123038;29;20051;-59
2023/12/09 03:56:56;;;;;;;7.97;2.00;;;;;;;;;;5122625;29;20421;-59
2023/12/09 03:59:27;;;;;;;11.65;2.70;;;;;;;;;;5122716;28;20054;-59
2023/12/09 04:01:59;;;;;;;11.38;2.10;;;;;;;;;;5122816;28;20086;-59
2023/12/09 04:04:30;;;;;;;;;;;;;;;;;;5123409;29;20113;-60
2023/12/09 04:07:01;;;;;;;10.80;2.03;;;;;;;;;;5122760;29;19918;-59
2023/12/09 04:09:32;;;;;;;3.78;1.65;;;;;;;;;;5122549;28;20079;-59
2023/12/09 04:12:04;;;;;;;14.65;2.05;;;;;;;;;;5122842;28;20089;-59
2023/12/09 04:14:36;;;;;;;9.50;2.15;;;;;;;;;;5120343;29;20450;-59
2023/12/09 04:17:07;;;;;;;7.63;2.20;;;;;;;;;;5106751;29;20450;-59
2023/12/09 04:19:38;;;;;;;14.57;2.33;;;;;;;;;;5104320;29;20039;-58
2023/12/09 04:22:09;;;;;;;8.55;1.65;;;;;;;;;;5122744;28;20085;-58
2023/12/09 04:24:40;;;;;;;12.18;2.10;;;;;;;;;;5128215;28;20043;-58
2023/12/09 04:27:12;;;;;;;7.35;1.60;;;;;;;;;;5122612;29;20039;-58
2023/12/09 04:29:43;;;;;;;12.20;2.53;;;;;;;;;;5105867;29;20079;-59
2023/12/09 04:32:14;;;;;;;9.50;1.73;;;;;;;;;;5121944;28;20142;-57
2023/12/09 04:34:45;;;;;;;8.18;2.13;;;;;;;;;;5121526;29;20048;-59
2023/12/09 04:37:16;;;;;;;10.18;1.73;;;;;;;;;;5121733;28;20156;-59
2023/12/09 04:39:47;;;;;;;10.40;2.40;;;;;;;;;;5121995;29;20054;-58
2023/12/09 04:42:19;;;;;;;6.20;1.92;;;;;;;;;;5140095;28;20486;-59
2023/12/09 04:44:50;;;;;;;11.65;2.33;;;;;;;;;;5128864;28;20067;-58
2023/12/09 04:47:21;;;;;;;11.80;1.70;;;;;;;;;;5112716;28;20479;-58
2023/12/09 04:49:53;;;;;;;11.80;2.78;;;;;;;;;;5126976;28;20047;-57
2023/12/09 04:52:24;;;;;;;6.65;1.58;;;;;;;;;;5106203;29;20058;-59
2023/12/09 04:54:55;;;;;;;7.43;2.27;;;;;;;;;;5121940;28;20139;-57
2023/12/09 04:57:27;;;;;;;8.75;2.00;;;;;;;;;;5105953;28;20047;-59
2023/12/09 04:59:58;;;;;;;8.88;1.60;;;;;;;;;;5121843;28;20050;-59
2023/12/09 05:02:29;;;;;;;13.63;2.00;;;;;;;;;;5105584;29;20035;-59
2023/12/09 05:05:01;;;;;;;9.48;2.53;;;;;;;;;;5137136;28;20062;-59
2023/12/09 05:07:32;;;;;;;11.98;2.05;;;;;;;;;;5121062;28;20118;-58
2023/12/09 05:10:04;;;;;;;10.10;1.98;;;;;;;;;;5121620;28;20038;-59
2023/12/09 05:12:35;;;;;;;9.68;2.05;;;;;;;;;;5121769;28;20039;-59
2023/12/09 05:15:06;;;;;;;10.15;2.10;;;;;;;;;;5122009;29;20426;-59
2023/12/09 05:17:37;;;;;;;8.80;1.73;;;;;;;;;;5120843;28;20054;-59
2023/12/09 05:20:09;;;;;;;6.03;2.22;;;;;;;;;;5105879;29;20043;-59
2023/12/09 05:22:41;;;;;;;9.40;2.00;;;;;;;;;;5123818;28;20406;-59
2023/12/09 05:25:12;;;;;;;5.90;2.08;;;;;;;;;;5121107;29;20126;-59
2023/12/09 05:27:43;;;;;;;10.07;2.97;;;;;;;;;;5122175;29;20035;-59
2023/12/09 05:30:14;;;;;;;7.97;1.90;;;;;;;;;;5106181;29;20498;-58
2023/12/09 05:32:45;;;;;;;12.32;2.38;;;;;;;;;;5120847;28;20047;-59
2023/12/09 05:35:16;;;;;;;10.93;2.13;;;;;;;;;;5133812;28;20150;-59
2023/12/09 05:37:47;;;;;;;8.18;2.22;;;;;;;;;;5122028;29;20150;-59
2023/12/09 05:40:18;;;;;;;9.63;2.10;;;;;;;;;;5122507;28;20062;-60
2023/12/09 05:42:50;;;;;;;9.80;2.72;;;;;;;;;;5125345;29;20137;-59
2023/12/09 05:45:21;;;;;;;13.80;2.45;;;;;;;;;;5109128;28;20039;-59
2023/12/09 05:47:52;;;;;;;6.28;1.92;;;;;;;;;;5125551;28;20434;-59
2023/12/09 05:50:23;;;;;;;11.35;2.05;;;;;;;;;;5109337;29;20051;-59
2023/12/09 05:52:54;;;;;;;10.65;2.50;;;;;;;;;;5124931;29;20059;-60
2023/12/09 05:55:25;;;;;;;8.57;2.13;;;;;;;;;;5124567;28;20047;-59
2023/12/09 05:57:56;;;;;;;4.72;1.92;;;;;;;;;;5124719;28;20129;-58
2023/12/09 06:00:28;;;;;;;13.40;2.17;;;;;;;;;;5125117;28;20050;-58
2023/12/09 06:02:59;;;;;;;12.80;2.97;;;;;;;;;;5124337;28;20368;-57
2023/12/09 06:05:30;;;;;;;9.50;1.95;;;;;;;;;;5151672;28;20039;-58
2023/12/09 06:08:01;;;;;;;12.10;2.20;;;;;;;;;;5124830;28;20043;-57
2023/12/09 06:10:32;;;;;;;8.25;2.47;;;;;;;;;;5124391;28;20114;-57
2023/12/09 06:13:03;;;;;;;14.13;2.75;;;;;;;;;;5140573;28;20095;-59
2023/12/09 06:15:34;;;;;;;11.48;2.70;;;;;;;;;;5108777;29;20043;-58
2023/12/09 06:18:05;;;;;;;12.82;2.75;;;;;;;;;;5124625;28;20067;-58
2023/12/09 06:20:36;;;;;;;7.78;2.33;;;;;;;;;;5128362;28;20494;-58
2023/12/09 06:23:08;;;;;;;10.13;1.85;;;;;;;;;;5108587;29;20127;-58
2023/12/09 06:25:39;;;;;;;11.52;2.50;;;;;;;;;;5124673;28;20039;-59
2023/12/09 06:28:10;;;;;;;11.05;2.83;;;;;;;;;;5124311;28;20042;-58
2023/12/09 06:30:41;;;;;;;12.55;2.40;;;;;;;;;;5129334;28;20039;-59
2023/12/09 06:33:12;;;;;;;10.88;1.90;;;;;;;;;;5108432;29;20039;-58
2023/12/09 06:35:43;;;;;;;11.00;2.20;;;;;;;;;;5124846;28;20472;-59
2023/12/09 06:38:14;;;;;;;11.68;2.20;;;;;;;;;;5108736;29;20059;-59
2023/12/09 06:40:45;;;;;;;13.30;3.05;;;;;;;;;;5124401;28;20047;-58
2023/12/09 06:43:16;;;;;;;15.75;2.95;;;;;;;;;;5124201;28;20325;-58
2023/12/09 06:45:47;;;;;;;10.27;2.22;;;;;;;;;;5124522;28;20070;-58
2023/12/09 06:48:18;;;;;;;8.73;3.53;;;;;;;;;;5123946;28;20043;-58
2023/12/09 06:50:50;;;;;;;14.27;2.90;;;;;;;;;;5124102;28;20075;-58
2023/12/09 06:53:21;;;;;;;7.75;2.10;;;;;;;;;;5123794;28;20051;-60
2023/12/09 06:55:52;;;;;;;12.68;2.75;;;;;;;;;;5123953;29;20071;-60
2023/12/09 06:58:23;;;;;;;13.77;2.88;;;;;;;;;;5123966;28;20078;-57
2023/12/09 07:00:54;;;;;;;10.98;2.88;;;;;;;;;;5108395;29;20439;-58
2023/12/09 07:03:26;;;;;;;11.57;2.45;;;;;;;;;;5123473;28;20065;-58
2023/12/09 07:05:57;;;;;;;14.27;2.37;;;;;;;;;;5107944;29;20036;-58
2023/12/09 07:08:28;;;;;;;13.50;2.72;;;;;;;;;;5123591;28;20305;-58
2023/12/09 07:11:00;;;;;;;11.93;2.72;;;;;;;;;;5123704;28;20046;-57
2023/12/09 07:13:31;;;;;;;15.10;2.67;;;;;;;;;;5123126;28;20039;-59
2023/12/09 07:16:03;;;;;;;13.43;2.17;;;;;;;;;;5123722;29;20161;-58
2023/12/09 07:18:34;;;;;;;;;;;;;;;;;;5124180;28;20390;-57
2023/12/09 07:21:06;;;;;;;9.32;2.47;;;;;;;;;;5123527;29;19976;-57
2023/12/09 07:23:37;;;;;;;14.15;3.10;;;;;;;;;;5123353;28;20391;-57
2023/12/09 07:26:08;;;;;;;13.45;2.92;;;;;;;;;;5123751;29;20043;-59
2023/12/09 07:28:39;;;;;;;12.38;2.58;;;;;;;;;;5123071;29;20098;-58
2023/12/09 07:31:10;;;;;;;13.40;2.28;;;;;;;;;;5115403;28;20035;-57
2023/12/09 07:33:42;;;;;;;12.25;2.45;;;;;;;;;;5123193;28;20546;-57
2023/12/09 07:36:13;;;;;;;12.97;2.27;;;;;;;;;;5107452;29;20133;-57
2023/12/09 07:38:44;;;;;;;16.70;2.58;;;;;;;;;;5123322;28;20826;-58
2023/12/09 07:41:15;;;;;;;14.02;2.83;;;;;;;;;;5107450;29;20067;-58
2023/12/09 07:43:46;;;;;;;12.23;2.13;;;;;;;;;;5122873;28;20067;-58
2023/12/09 07:46:17;;;;;;;15.60;3.50;;;;;;;;;;5106834;29;20093;-58
2023/12/09 07:48:48;;;;;;;12.82;2.92;;;;;;;;;;5107411;29;20379;-57
2023/12/09 07:51:19;;;;;;;11.40;2.88;;;;;;;;;;5106924;29;20062;-57
2023/12/09 07:53:51;;;;;;;10.30;2.77;;;;;;;;;;5114435;29;20047;-59
2023/12/09 07:56:22;;;;;;;13.40;2.05;;;;;;;;;;5122399;29;20051;-57
2023/12/09 07:58:53;;;;;;;11.33;2.53;;;;;;;;;;5122218;28;20039;-58
2023/12/09 08:01:24;;;;;;;11.65;2.33;;;;;;;;;;5138037;28;20833;-58
2023/12/09 08:03:55;;;;;;;16.15;2.65;;;;;;;;;;5120792;28;20078;-58
2023/12/09 08:06:26;;;;;;;12.65;2.85;;;;;;;;;;5122519;28;20113;-58
2023/12/09 08:08:58;;;;;;;10.38;2.38;;;;;;;;;;5105269;29;20097;-58
2023/12/09 08:11:29;;;;;;;12.67;2.50;;;;;;;;;;5143639;28;20098;-58
2023/12/09 08:14:00;;;;;;;13.85;2.88;;;;;;;;;;5105826;29;20082;-58
2023/12/09 08:16:31;;;;;;;9.30;2.20;;;;;;;;;;5121996;28;20101;-58
2023/12/09 08:19:02;;;;;;;11.05;2.75;;;;;;;;;;5121981;29;20099;-58
2023/12/09 08:21:36;;;;;;;11.10;2.30;;;;;;;;;;5121898;28;20079;-57
2023/12/09 08:24:08;;;;;;;12.90;2.30;;;;;;;;;;5121732;28;20134;-58
2023/12/09 08:26:39;;;;;;;10.02;2.45;;;;;;;;;;5121790;28;20038;-59
2023/12/09 08:29:14;;;;;;;14.65;3.40;;;;;;;;;;5105259;29;20039;-59
2023/12/09 08:31:48;;;;;;;11.20;3.05;;;;;;;;;;5105957;29;20047;-59
2023/12/09 08:34:20;;;;;;;10.93;2.50;;;;;;;;;;5122391;28;20054;-59
2023/12/09 08:36:51;;;;;;;13.98;2.90;;;;;;;;;;5121436;28;20082;-59
2023/12/09 08:39:23;;;;;;;15.68;3.13;;;;;;;;;;5106429;29;20035;-59
2023/12/09 08:41:54;;;;;;;13.93;3.67;;;;;;;;;;5132059;28;20134;-61
2023/12/09 08:44:25;;;;;;;10.68;2.42;;;;;;;;;;5138386;28;20050;-57
2023/12/09 08:46:57;;;;;;;10.73;2.22;;;;;;;;;;5137400;28;20173;-58
2023/12/09 08:49:29;;;;;;;13.63;2.40;;;;;;;;;;5106585;29;20035;-58
2023/12/09 08:52:00;;;;;;;11.73;2.40;;;;;;;;;;5123853;28;20047;-57
2023/12/09 08:54:31;;;;;;;13.00;2.53;;;;;;;;;;5106009;29;20047;-57
2023/12/09 08:57:02;;;;;;;15.05;3.28;;;;;;;;;;5138228;28;20351;-57
2023/12/09 08:59:33;;;;;;;14.43;2.38;;;;;;;;;;5106349;29;20099;-57
2023/12/09 09:02:05;;;;;;;10.02;2.60;;;;;;;;;;5129499;28;20097;-57
2023/12/09 09:04:36;;;;;;;12.70;2.63;;;;;;;;;;5107342;28;20082;-58
2023/12/09 09:07:07;;;;;;;13.02;2.17;;;;;;;;;;5121499;29;20093;-60
2023/12/09 09:09:39;;;;;;;9.18;2.17;;;;;;;;;;5121249;28;20035;-59
2023/12/09 09:12:10;;;;;;;15.73;2.72;;;;;;;;;;5121734;28;20084;-58
2023/12/09 09:14:41;;;;;;;10.73;2.60;;;;;;;;;;5138700;28;20130;-58
2023/12/09 09:17:12;;;;;;;8.82;2.30;;;;;;;;;;5121806;28;20587;-58
2023/12/09 09:19:43;;;;;;;8.23;2.20;;;;;;;;;;5131261;28;20122;-59
2023/12/09 09:22:15;;;;;;;11.63;2.65;;;;;;;;;;5132905;28;20070;-57
2023/12/09 09:24:47;;;;;;;12.83;2.80;;;;;;;;;;5108025;29;20043;-57
2023/12/09 09:27:18;;;;;;;12.38;2.75;;;;;;;;;;5108325;29;20285;-57
2023/12/09 09:29:50;;;;;;;13.48;2.17;;;;;;;;;;5124491;28;20109;-57
2023/12/09 09:32:21;;;;;;;11.18;2.67;;;;;;;;;;5123659;28;20047;-58
2023/12/09 09:34:52;;;;;;;12.37;2.57;;;;;;;;;;5138333;28;20046;-57
2023/12/09 09:37:23;;;;;;;11.55;2.92;;;;;;;;;;5139385;28;20047;-58
2023/12/09 09:39:55;;;;;;;16.95;2.83;;;;;;;;;;5107736;29;20067;-57
2023/12/09 09:42:31;;;;;;;16.20;2.30;;;;;;;;;;5140015;28;20047;-58
2023/12/09 09:45:05;;;;;;;13.18;2.88;;;;;;;;;;5107996;29;20055;-58
2023/12/09 09:47:37;;;;;;;9.75;2.40;;;;;;;;;;5123809;28;20047;-58
2023/12/09 09:50:08;;;;;;;9.55;2.30;;;;;;;;;;5127721;28;20039;-57
2023/12/09 09:52:41;;;;;;;10.77;2.22;;;;;;;;;;5125791;28;20347;-59
2023/12/09 09:55:12;;;;;;;;;;;;;;;;;;5142225;28;20066;-60
2023/12/09 09:57:44;;;;;;;13.30;2.20;;;;;;;;;;5125255;28;19922;-59
2023/12/09 10:00:16;;;;;;;9.10;2.53;;;;;;;;;;5124589;28;20053;-57
2023/12/09 10:02:48;;;;;;;12.88;2.40;;;;;;;;;;5123289;28;20111;-58
2023/12/09 10:05:22;;;;;;;10.90;2.47;;;;;;;;;;5122767;28;20078;-58
2023/12/09 10:07:55;;;;;;;11.65;2.72;;;;;;;;;;5110186;29;20146;-57
2023/12/09 10:10:27;;;;;;;10.40;2.78;;;;;;;;;;5124920;29;20043;-58
2023/12/09 10:12:58;;;;;;;9.05;2.58;;;;;;;;;;5124150;29;20050;-59
2023/12/09 10:15:29;;;;;;;9.25;1.85;;;;;;;;;;5124902;28;20043;-59
2023/12/09 10:18:04;;;;;;;8.88;2.20;;;;;;;;;;5127999;28;20035;-60
2023/12/09 10:20:35;;;;;;;10.50;2.45;;;;;;;;;;5124431;28;20499;-58
2023/12/09 10:23:08;;;;;;;7.20;1.97;;;;;;;;;;5132490;28;20071;-60
2023/12/09 10:25:40;;;;;;;6.93;2.10;;;;;;;;;;5107062;28;20046;-58
2023/12/09 10:28:12;;;;;;;;;;;;;;;;;;5140895;28;20035;-58
2023/12/09 10:30:43;;;;;;;11.60;3.13;;;;;;;;;;5124589;28;20409;-59
2023/12/09 10:33:15;;;;;;;13.40;2.53;;;;;;;;;;5108739;29;20035;-59
2023/12/09 10:35:46;;;;;;;7.80;2.30;;;;;;;;;;5124238;28;20043;-59
2023/12/09 10:38:17;;;;;;;9.50;2.10;;;;;;;;;;5124112;29;20043;-59
2023/12/09 10:40:49;;;;;;;12.25;2.42;;;;;;;;;;5107770;29;20415;-59
2023/12/09 10:43:20;;;;;;;8.30;2.38;;;;;;;;;;5108399;29;20070;-59
2023/12/09 10:45:52;;;;;;;8.10;1.75;;;;;;;;;;5125298;28;20053;-58
2023/12/09 10:48:23;;;;;;;10.07;2.42;;;;;;;;;;5105170;28;20122;-59
2023/12/09 10:50:54;;;;;;;12.73;3.17;;;;;;;;;;5124651;28;20035;-60
2023/12/09 10:53:25;;;;;;;10.55;3.30;;;;;;;;;;5123325;29;20045;-58
2023/12/09 10:55:57;;;;;;;13.37;3.83;;;;;;;;;;5123231;28;20078;-58
2023/12/09 10:58:28;;;;;;;12.63;3.40;;;;;;;;;;5123484;29;20554;-58
2023/12/09 11:01:00;;;;;;;13.43;3.63;;;;;;;;;;5123763;28;20105;-59
2023/12/09 11:03:32;;;;;;;12.00;3.45;;;;;;;;;;5123503;29;20051;-60
2023/12/09 11:06:05;;;;;;;13.07;3.55;;;;;;;;;;5123964;28;20069;-59
2023/12/09 11:08:37;;;;;;;12.35;3.28;;;;;;;;;;5123871;28;20518;-59
2023/12/09 11:11:08;;;;;;;10.32;2.78;;;;;;;;;;5123968;28;20098;-60
2023/12/09 11:13:44;;;;;;;9.43;3.13;;;;;;;;;;5107876;29;20043;-60
2023/12/09 11:16:21;;;;;;;8.13;2.60;;;;;;;;;;5123994;28;20057;-59
2023/12/09 11:18:53;;;;;;;13.05;2.95;;;;;;;;;;5123818;29;20090;-60
2023/12/09 11:21:27;;;;;;;8.57;2.97;;;;;;;;;;5130714;28;20043;-59
2023/12/09 11:23:59;;;;;;;10.60;3.05;;;;;;;;;;5107692;28;20043;-60
2023/12/09 11:26:31;;;;;;;11.23;3.53;;;;;;;;;;5107787;29;20153;-59
2023/12/09 11:29:03;;;;;;;;;;;;;;;;;;5107800;28;20094;-60
2023/12/09 11:31:37;;;;;;;6.07;2.25;;;;;;;;;;5107468;29;20342;-58
2023/12/09 11:34:09;;;;;;;7.43;2.20;;;;;;;;;;5107580;29;20491;-58
2023/12/09 11:36:41;;;;;;;7.45;2.20;;;;;;;;;;5107916;29;20130;-59
2023/12/09 11:39:13;;;;;;;8.13;2.08;;;;;;;;;;5123361;28;20039;-60
2023/12/09 11:41:45;;;;;;;6.55;2.00;;;;;;;;;;5107249;28;20045;-59
2023/12/09 11:44:16;;;;;;;;;;;;;;;;;;5108236;29;20043;-60
2023/12/09 11:46:48;;;;;;;6.47;1.65;;;;;;;;;;5107142;28;19950;-60
2023/12/09 11:49:19;;;;;;;5.38;1.38;;;;;;;;;;5107434;29;20039;-60
2023/12/09 11:51:50;;;;;;;3.03;1.40;;;;;;;;;;5122724;29;20134;-60
2023/12/09 11:54:21;;;;;;;3.53;1.48;;;;;;;;;;5123157;29;20047;-60
2023/12/09 11:56:52;;;;;;;4.63;1.13;;;;;;;;;;5122925;28;20043;-60
2023/12/09 11:59:23;;;;;;;2.20;1.00;;;;;;;;;;5107324;29;20561;-60
2023/12/09 12:01:54;;;;;;;3.05;0.90;;;;;;;;;;5106863;29;20040;-60
2023/12/09 12:04:33;;;;;;;4.67;1.53;;;;;;;;;;5107024;29;20435;-59
2023/12/09 12:07:04;;;;;;;2.80;1.38;;;;;;;;;;5106866;29;20070;-59
2023/12/09 12:09:35;;;;;;;4.30;1.40;;;;;;;;;;5106532;29;20120;-59
2023/12/09 12:12:07;;;;;;;2.67;0.93;;;;;;;;;;5122615;28;20075;-59
2023/12/09 12:14:38;;;;;;;3.80;1.15;;;;;;;;;;5123077;28;20402;-59
2023/12/09 12:17:10;;;;;;;5.67;1.23;;;;;;;;;;5123120;28;20423;-60
2023/12/09 12:19:41;;;;;;;2.17;1.30;;;;;;;;;;5122947;28;20277;-60
2023/12/09 12:22:12;;;;;;;4.72;1.02;;;;;;;;;;5122354;28;20467;-60
2023/12/09 12:24:44;;;;;;;3.07;1.20;;;;;;;;;;5134789;28;20047;-59
2023/12/09 12:27:15;;;;;;;1.75;0.90;;;;;;;;;;5122088;28;20047;-59
2023/12/09 12:29:47;;;;;;;2.77;0.70;;;;;;;;;;5122667;29;20042;-59
2023/12/09 12:32:18;;;;;;;4.63;0.98;;;;;;;;;;5106611;28;20445;-59
2023/12/09 12:34:50;;;;;;;2.33;0.52;;;;;;;;;;5122954;28;20455;-59
2023/12/09 12:37:21;;;;;;;1.17;0.75;;;;;;;;;;5106343;29;20047;-59
2023/12/09 12:39:52;;;;;;;2.78;0.90;;;;;;;;;;5106958;29;20063;-59
2023/12/09 12:42:24;;;;;;;3.60;0.95;;;;;;;;;;5122336;28;20043;-59
2023/12/09 12:44:55;;;;;;;2.23;0.80;;;;;;;;;;5122504;28;20046;-59
2023/12/09 12:47:27;;;;;;;2.85;0.90;;;;;;;;;;5122096;28;20042;-59
2023/12/09 12:49:58;;;;;;;2.93;0.70;;;;;;;;;;5121649;28;20043;-59
2023/12/09 12:52:30;;;;;;;1.03;0.70;;;;;;;;;;5122467;29;20039;-59
2023/12/09 12:55:01;;;;;;;1.80;0.60;;;;;;;;;;5122197;28;20281;-59
2023/12/09 12:57:32;;;;;;;2.00;0.88;;;;;;;;;;5121980;28;20055;-59
2023/12/09 13:00:04;;;;;;;1.55;0.52;;;;;;;;;;5138719;28;20072;-59
2023/12/09 13:02:35;;;;;;;3.67;0.85;;;;;;;;;;5109481;29;20043;-59
2023/12/09 13:05:06;;;;;;;1.83;0.53;;;;;;;;;;5122361;28;20391;-59
2023/12/09 13:07:38;;;;;;;3.13;0.70;;;;;;;;;;5121866;28;20497;-58
2023/12/09 13:10:10;;;;;;;2.80;0.65;;;;;;;;;;5106200;29;20125;-57
2023/12/09 13:12:41;;;;;;;1.33;0.68;;;;;;;;;;5122093;28;20043;-58
2023/12/09 13:15:13;;;;;;;5.00;1.92;;;;;;;;;;5106585;29;20133;-58
2023/12/09 13:17:44;;;;;;;3.70;0.80;;;;;;;;;;5106332;29;20536;-58
2023/12/09 13:20:15;;;;;;;4.90;1.70;;;;;;;;;;5122170;28;20047;-59
2023/12/09 13:22:46;;;;;;;3.70;2.20;;;;;;;;;;5121951;28;20384;-58
2023/12/09 13:25:17;;;;;;;2.70;0.77;;;;;;;;;;5106956;28;20049;-58
2023/12/09 13:27:49;;;;;;;1.80;0.80;;;;;;;;;;5105980;29;20044;-59
2023/12/09 13:30:21;;;;;;;2.70;0.60;;;;;;;;;;5122141;28;20177;-59
2023/12/09 13:32:53;;;;;;;3.25;0.75;;;;;;;;;;5122589;29;20051;-59
2023/12/09 13:35:24;;;;;;;2.45;0.70;;;;;;;;;;5122338;29;20067;-59
2023/12/09 13:37:56;;;;;;;2.28;0.77;;;;;;;;;;5121972;28;20121;-59
2023/12/09 13:40:27;;;;;;;1.90;0.75;;;;;;;;;;5125045;28;20105;-57
2023/12/09 13:42:58;;;;;;;2.70;0.90;;;;;;;;;;5131123;28;20064;-58
2023/12/09 13:45:35;;;;;;;2.00;0.50;;;;;;;;;;5121475;28;20131;-57
2023/12/09 13:48:08;;;;;;;2.35;0.90;;;;;;;;;;5134419;28;20426;-58
2023/12/09 13:50:40;;;;;;;2.20;0.52;;;;;;;;;;5121362;28;20065;-57
2023/12/09 13:53:11;;;;;;;1.92;0.73;;;;;;;;;;5121918;28;20054;-59
2023/12/09 13:55:42;;;;;;;8.07;5.87;;;;;;;;;;5105886;29;20043;-57
2023/12/09 13:58:13;;;;;;;2.33;0.90;;;;;;;;;;5121321;28;20047;-58
2023/12/09 14:00:45;;;;;;;3.50;0.90;;;;;;;;;;5122125;28;20447;-60
2023/12/09 14:03:16;;;;;;;1.48;0.65;;;;;;;;;;5124662;28;20049;-58
2023/12/09 14:05:47;;;;;;;5.67;1.10;;;;;;;;;;5109205;29;20039;-58
2023/12/09 14:08:18;;;;;;;1.87;0.50;;;;;;;;;;5125597;28;20035;-58
2023/12/09 14:10:49;;;;;;;2.97;1.90;;;;;;;;;;5134299;28;20085;-58
2023/12/09 14:13:20;;;;;;;4.72;1.00;;;;;;;;;;5141395;28;20087;-59
2023/12/09 14:15:53;;;;;;;2.35;1.63;;;;;;;;;;5108912;28;20043;-57
2023/12/09 14:18:25;;;;;;;;;;;;;;;;;;5109639;29;20043;-58
2023/12/09 14:20:56;;;;;;;2.47;0.63;;;;;;;;;;5124813;29;19994;-58
2023/12/09 14:23:27;;;;;;;1.47;0.63;;;;;;;;;;5128451;28;20048;-58
2023/12/09 14:25:59;;;;;;;1.48;0.63;;;;;;;;;;5137423;28;20042;-58
2023/12/09 14:28:30;;;;;;;1.35;0.55;;;;;;;;;;5124915;29;20043;-60
2023/12/09 14:31:02;;;;;;;2.13;1.00;;;;;;;;;;5124262;28;20042;-58
2023/12/09 14:33:37;;;;;;;;;;;;;;;;;;5125006;28;20502;-58
2023/12/09 14:36:09;;;;;;;1.30;0.50;;;;;;;;;;5136071;28;19999;-58
2023/12/09 14:38:40;;;;;;;3.42;1.33;;;;;;;;;;5123926;28;20050;-58
2023/12/09 14:41:11;;;;;;;3.97;1.80;;;;;;;;;;5124750;28;20067;-58
2023/12/09 14:43:42;;;;;;;3.37;1.37;;;;;;;;;;5123938;28;20039;-59
2023/12/09 14:46:16;;;;;;;0.80;0.60;;;;;;;;;;5124975;28;20364;-57
2023/12/09 14:48:48;;;;;;;3.05;1.02;;;;;;;;;;5123962;28;20039;-59
2023/12/09 14:51:19;;;;;;;1.83;0.50;;;;;;;;;;5108341;29;20039;-58
2023/12/09 14:53:50;;;;;;;2.17;0.90;;;;;;;;;;5123852;28;20106;-58
2023/12/09 14:56:22;;;;;;;2.33;1.20;;;;;;;;;;5124288;28;20466;-57
2023/12/09 14:58:53;;;;;;;4.93;1.53;;;;;;;;;;5123469;28;20046;-58
2023/12/09 15:01:24;;;;;;;2.38;1.05;;;;;;;;;;5108839;29;20046;-59
2023/12/09 15:03:55;;;;;;;3.07;1.30;;;;;;;;;;5126848;28;20047;-58
2023/12/09 15:06:26;;;;;;;1.80;0.97;;;;;;;;;;5109228;28;20129;-60